createdAt,value
2022-12-13T00:00:27.349Z,99536.63
2022-12-13T00:02:54.234Z,99533.25
2022-12-13T00:05:20.795Z,99540.56
2022-12-13T00:07:47.468Z,99539.69
2022-12-13T00:10:14.177Z,99549.97
2022-12-13T00:12:40.760Z,99551.69
2022-12-13T00:15:07.885Z,99544.56
2022-12-13T00:17:34.774Z,99546.31
2022-12-13T00:20:01.685Z,99534.38
2022-12-13T00:22:28.293Z,99536.19
2022-12-13T00:24:56.429Z,99530.06
2022-12-13T00:27:23.308Z,99531.00
2022-12-13T00:29:49.840Z,99530.06
2022-12-13T00:32:17.096Z,99532.59
2022-12-13T00:34:43.710Z,99528.97
2022-12-13T00:37:10.258Z,99528.06
2022-12-13T00:39:36.895Z,99519.59
2022-12-13T00:42:03.497Z,99520.28
2022-12-13T00:44:31.256Z,99518.81
2022-12-13T00:46:57.846Z,99523.63
2022-12-13T00:49:24.893Z,99512.00
2022-12-13T00:51:51.704Z,99510.38
2022-12-13T00:54:18.643Z,99512.13
2022-12-13T00:56:45.703Z,99513.94
2022-12-13T00:59:14.904Z,99508.06
2022-12-13T01:01:41.554Z,99507.97
2022-12-13T01:04:08.135Z,99507.09
2022-12-13T01:06:38.744Z,99507.00
2022-12-13T01:09:07.983Z,99505.16
2022-12-13T01:11:34.590Z,99513.53
2022-12-13T01:14:01.205Z,99504.06
2022-12-13T01:16:27.924Z,99504.28
2022-12-13T01:18:54.568Z,99505.09
2022-12-13T01:21:22.219Z,99501.81
2022-12-13T01:23:49.577Z,99500.19
2022-12-13T01:26:19.607Z,99501.00
2022-12-13T01:28:47.063Z,99501.81
2022-12-13T01:31:16.790Z,99501.81
2022-12-13T01:33:43.617Z,99500.94
2022-12-13T01:36:15.178Z,99512.00
2022-12-13T01:38:42.531Z,99508.53
2022-12-13T01:41:19.093Z,99511.91
2022-12-13T01:46:22.945Z,99517.81
2022-12-13T01:48:59.907Z,99525.47
2022-12-13T01:51:36.618Z,99524.59
2022-12-13T01:54:06.222Z,99527.09
2022-12-13T01:56:39.364Z,99534.66
2022-12-13T01:59:08.041Z,99527.81
2022-12-13T02:01:34.765Z,99530.84
2022-12-13T02:04:01.469Z,99531.69
2022-12-13T02:09:07.990Z,99538.59
2022-12-13T02:11:37.215Z,99539.59
2022-12-13T02:14:05.481Z,99543.91
2022-12-13T02:27:43.307Z,99533.22
2022-12-13T02:30:37.774Z,99530.63
2022-12-13T02:33:29.564Z,99530.56
2022-12-13T02:38:59.510Z,99540.53
2022-12-13T02:44:22.782Z,99533.81
2022-12-13T02:47:02.990Z,99535.53
2022-12-13T02:49:34.197Z,99543.13
2022-12-13T02:52:03.287Z,99536.00
2022-12-13T02:54:31.012Z,99537.78
2022-12-13T02:56:59.186Z,99537.00
2022-12-13T02:59:35.113Z,99543.50
2022-12-13T03:02:18.376Z,99539.47
2022-12-13T03:07:52.019Z,99547.16
2022-12-13T03:10:27.948Z,99545.22
2022-12-13T03:13:21.732Z,99546.19
2022-12-13T03:15:57.524Z,99546.13
2022-12-13T03:18:27.091Z,99540.03
2022-12-13T03:23:30.130Z,99545.03
2022-12-13T03:26:01.625Z,99541.47
2022-12-13T03:28:28.371Z,99534.44
2022-12-13T03:30:55.117Z,99537.81
2022-12-13T03:33:22.695Z,99536.88
2022-12-13T03:35:49.632Z,99535.97
2022-12-13T03:38:21.591Z,99529.97
2022-12-13T03:40:52.038Z,99531.63
2022-12-13T03:43:22.468Z,99530.72
2022-12-13T03:45:50.588Z,99524.75
2022-12-13T03:48:22.191Z,99528.13
2022-12-13T03:50:51.611Z,99519.56
2022-12-13T03:53:23.155Z,99516.13
2022-12-13T03:56:00.831Z,99520.28
2022-12-13T03:58:36.371Z,99517.69
2022-12-13T04:01:19.898Z,99513.34
2022-12-13T04:03:47.397Z,99505.66
2022-12-13T04:06:21.936Z,99508.97
2022-12-13T04:08:50.944Z,99516.56
2022-12-13T04:11:42.465Z,99513.16
2022-12-13T04:14:10.484Z,99519.84
2022-12-13T04:16:37.088Z,99513.88
2022-12-13T04:19:03.727Z,99517.19
2022-12-13T04:21:30.348Z,99518.03
2022-12-13T04:23:56.970Z,99508.63
2022-12-13T04:26:27.607Z,99512.75
2022-12-13T04:28:54.803Z,99515.22
2022-12-13T04:31:22.052Z,99511.75
2022-12-13T04:33:48.821Z,99510.78
2022-12-13T04:36:32.181Z,99503.97
2022-12-13T04:39:01.045Z,99505.53
2022-12-13T04:41:34.312Z,99509.75
2022-12-13T04:44:02.317Z,99504.53
2022-12-13T04:46:29.216Z,99512.94
2022-12-13T04:48:55.731Z,99504.47
2022-12-13T04:51:22.435Z,99498.44
2022-12-13T04:53:49.006Z,99493.31
2022-12-13T04:56:15.637Z,99481.47
2022-12-13T04:58:42.292Z,99488.22
2022-12-13T05:01:11.227Z,99485.63
2022-12-13T05:03:38.724Z,99485.47
2022-12-13T05:06:07.514Z,99489.56
2022-12-13T05:08:54.052Z,99497.91
2022-12-13T05:11:20.660Z,99490.97
2022-12-13T05:13:49.917Z,99492.63
2022-12-13T05:16:16.521Z,99487.41
2022-12-13T05:18:43.102Z,99494.00
2022-12-13T05:21:11.608Z,99495.50
2022-12-13T05:23:39.128Z,99498.81
2022-12-13T05:26:06.184Z,99497.88
2022-12-13T05:28:33.384Z,99490.25
2022-12-13T05:31:23.109Z,99491.13
2022-12-13T05:33:51.668Z,99489.47
2022-12-13T05:36:18.836Z,99485.22
2022-12-13T05:38:45.409Z,99481.91
2022-12-13T05:41:17.286Z,99478.47
2022-12-13T05:43:44.051Z,99465.78
2022-12-13T05:48:46.843Z,99465.66
2022-12-13T05:51:13.420Z,99473.22
2022-12-13T05:53:41.226Z,99475.72
2022-12-13T05:56:09.601Z,99495.19
2022-12-13T05:58:37.618Z,99498.50
2022-12-13T06:01:06.919Z,99495.94
2022-12-13T06:03:33.635Z,99491.72
2022-12-13T06:06:02.503Z,99491.59
2022-12-13T06:08:30.134Z,99489.88
2022-12-13T06:11:10.677Z,99488.97
2022-12-13T06:13:42.413Z,99494.81
2022-12-13T06:16:09.513Z,99491.25
2022-12-13T06:18:50.685Z,99497.16
2022-12-13T06:21:18.037Z,99495.41
2022-12-13T06:23:44.636Z,99497.03
2022-12-13T06:26:11.188Z,99502.94
2022-12-13T06:28:37.736Z,99504.66
2022-12-13T06:31:05.118Z,99512.28
2022-12-13T06:33:36.068Z,99514.81
2022-12-13T06:36:03.710Z,99520.72
2022-12-13T06:38:31.422Z,99516.53
2022-12-13T06:41:16.875Z,99505.56
2022-12-13T06:43:45.172Z,99500.53
2022-12-13T06:46:12.395Z,99504.78
2022-12-13T06:48:40.720Z,99505.69
2022-12-13T06:51:08.672Z,99500.59
2022-12-13T06:53:37.440Z,99503.97
2022-12-13T06:56:06.205Z,99506.50
2022-12-13T06:58:33.906Z,99513.19
2022-12-13T07:01:24.732Z,99516.53
2022-12-13T07:03:54.166Z,99510.56
2022-12-13T07:06:22.097Z,99513.19
2022-12-13T07:08:50.897Z,99516.53
2022-12-13T07:11:20.027Z,99518.16
2022-12-13T07:13:46.587Z,99521.63
2022-12-13T07:16:14.310Z,99513.09
2022-12-13T07:18:41.277Z,99523.25
2022-12-13T07:21:10.576Z,99525.81
2022-12-13T07:23:55.073Z,99521.63
2022-12-13T07:26:22.440Z,99517.41
2022-12-13T07:28:54.762Z,99525.94
2022-12-13T07:31:22.836Z,99532.72
2022-12-13T07:33:49.919Z,99525.88
2022-12-13T07:36:19.580Z,99517.28
2022-12-13T07:38:52.112Z,99517.28
2022-12-13T07:41:23.217Z,99526.50
2022-12-13T07:43:55.511Z,99522.38
2022-12-13T07:46:26.194Z,99522.44
2022-12-13T07:49:03.107Z,99523.28
2022-12-13T07:51:29.758Z,99519.88
2022-12-13T07:53:57.260Z,99522.44
2022-12-13T07:56:23.820Z,99522.31
2022-12-13T07:58:50.392Z,99525.59
2022-12-13T08:01:18.443Z,99533.28
2022-12-13T08:03:48.291Z,99525.66
2022-12-13T08:06:15.232Z,99523.06
2022-12-13T08:08:41.821Z,99521.34
2022-12-13T08:11:11.414Z,99522.06
2022-12-13T08:13:38.970Z,99516.97
2022-12-13T08:16:26.218Z,99516.19
2022-12-13T08:19:02.424Z,99511.88
2022-12-13T08:24:25.569Z,99515.59
2022-12-13T08:26:52.389Z,99511.09
2022-12-13T08:29:22.368Z,99515.06
2022-12-13T08:32:01.101Z,99519.13
2022-12-13T08:34:28.028Z,99519.94
2022-12-13T08:37:02.554Z,99519.81
2022-12-13T08:39:34.306Z,99524.91
2022-12-13T08:42:16.606Z,99526.75
2022-12-13T08:44:50.081Z,99526.88
2022-12-13T08:47:23.836Z,99523.66
2022-12-13T08:49:53.832Z,99517.81
2022-12-13T08:52:22.765Z,99522.97
2022-12-13T08:54:49.658Z,99517.06
2022-12-13T08:57:16.176Z,99520.56
2022-12-13T08:59:42.712Z,99508.84
2022-12-13T09:02:13.664Z,99515.72
2022-12-13T09:04:40.288Z,99509.91
2022-12-13T09:07:06.924Z,99507.41
2022-12-13T09:09:33.521Z,99510.06
2022-12-13T09:12:00.532Z,99506.78
2022-12-13T09:14:33.857Z,99512.72
2022-12-13T09:17:03.492Z,99507.75
2022-12-13T09:19:36.946Z,99510.41
2022-12-13T09:22:04.757Z,99513.09
2022-12-13T09:24:36.218Z,99513.19
2022-12-13T09:27:09.381Z,99510.63
2022-12-13T09:29:37.255Z,99506.44
2022-12-13T09:32:04.561Z,99506.56
2022-12-13T09:34:33.055Z,99505.81
2022-12-13T09:37:01.407Z,99504.19
2022-12-13T09:39:28.888Z,99500.03
2022-12-13T09:42:00.673Z,99503.50
2022-12-13T09:44:43.862Z,99498.50
2022-12-13T09:47:23.555Z,99498.50
2022-12-13T09:49:52.658Z,99497.78
2022-12-13T09:52:23.663Z,99492.84
2022-12-13T09:54:53.813Z,99497.16
2022-12-13T09:57:32.260Z,99492.78
2022-12-13T10:00:02.351Z,99491.94
2022-12-13T10:02:32.023Z,99494.47
2022-12-13T10:07:55.388Z,99485.69
2022-12-13T10:10:23.313Z,99490.22
2022-12-13T10:12:58.205Z,99493.63
2022-12-13T10:15:26.104Z,99494.59
2022-12-13T10:17:55.565Z,99489.81
2022-12-13T10:20:26.059Z,99491.06
2022-12-13T10:23:30.050Z,99489.22
2022-12-13T10:26:03.327Z,99488.25
2022-12-13T10:28:33.488Z,99492.09
2022-12-13T10:31:01.357Z,99487.41
2022-12-13T10:33:31.855Z,99492.59
2022-12-13T10:36:07.061Z,99500.19
2022-12-13T10:38:38.983Z,99498.44
2022-12-13T10:41:27.149Z,99482.97
2022-12-13T10:44:17.149Z,99476.97
2022-12-13T10:46:50.044Z,99474.38
2022-12-13T10:49:27.349Z,99475.28
2022-12-13T10:51:54.332Z,99469.28
2022-12-13T10:54:28.691Z,99466.00
2022-12-13T10:57:05.598Z,99465.34
2022-12-13T10:59:35.569Z,99456.09
2022-12-13T11:02:22.748Z,99456.19
2022-12-13T11:04:49.353Z,99455.22
2022-12-13T11:07:33.530Z,99457.72
2022-12-13T11:13:02.455Z,99449.19
2022-12-13T11:15:31.122Z,99443.97
2022-12-13T11:18:04.292Z,99449.94
2022-12-13T11:20:35.993Z,99441.50
2022-12-13T11:23:33.073Z,99437.22
2022-12-13T11:26:05.500Z,99420.25
2022-12-13T11:31:41.035Z,99423.56
2022-12-13T11:39:50.284Z,99416.56
2022-12-13T11:47:45.225Z,99400.19
2022-12-13T11:50:32.775Z,99398.56
2022-12-13T11:53:26.394Z,99409.50
2022-12-13T11:56:17.799Z,99401.84
2022-12-13T11:59:07.093Z,99391.66
2022-12-13T12:07:24.385Z,99389.00
2022-12-13T12:09:55.803Z,99391.56
2022-12-13T12:12:39.771Z,99386.47
2022-12-13T12:15:29.909Z,99386.47
2022-12-13T12:17:57.480Z,99389.91
2022-12-13T12:20:41.867Z,99394.16
2022-12-13T12:26:07.762Z,99379.09
2022-12-13T12:42:10.805Z,99360.16
2022-12-13T12:53:06.611Z,99351.31
2022-12-13T12:56:00.308Z,99347.84
2022-12-13T12:58:33.861Z,99346.03
2022-12-13T13:01:37.690Z,99346.81
2022-12-13T13:04:22.471Z,99347.59
2022-12-13T13:07:01.854Z,99345.88
2022-12-13T13:09:30.398Z,99348.41
2022-12-13T13:11:58.066Z,99339.03
2022-12-13T13:20:23.979Z,99343.44
2022-12-13T13:23:25.178Z,99337.56
2022-12-13T13:26:15.990Z,99331.59
2022-12-13T13:28:41.935Z,99334.13
2022-12-13T13:31:10.334Z,99332.47
2022-12-13T13:33:45.019Z,99327.41
2022-12-13T13:39:19.359Z,99322.31
2022-12-13T13:41:56.122Z,99317.31
2022-12-13T13:53:10.760Z,99322.50
2022-12-13T13:56:17.502Z,99326.03
2022-12-13T13:59:03.513Z,99324.50
2022-12-13T14:02:09.951Z,99326.22
2022-12-13T14:08:09.657Z,99321.91
2022-12-13T14:16:56.156Z,99320.13
2022-12-13T14:27:58.432Z,99302.41
2022-12-13T14:30:27.600Z,99309.16
2022-12-13T14:32:56.834Z,99299.66
2022-12-13T14:35:27.540Z,99312.31
2022-12-13T14:37:56.931Z,99296.88
2022-12-13T14:40:52.766Z,99306.16
2022-12-13T14:43:26.338Z,99303.59
2022-12-13T14:45:57.479Z,99305.28
2022-12-13T14:48:29.030Z,99306.94
2022-12-13T14:50:56.656Z,99307.72
2022-12-13T14:53:28.092Z,99294.09
2022-12-13T14:58:56.760Z,99292.25
2022-12-13T15:01:29.464Z,99292.13
2022-12-13T15:04:24.967Z,99289.50
2022-12-13T15:06:59.887Z,99293.69
2022-12-13T15:09:29.019Z,99297.91
2022-12-13T15:12:04.317Z,99292.75
2022-12-13T15:14:48.285Z,99291.91
2022-12-13T15:20:23.093Z,99284.25
2022-12-13T15:22:58.973Z,99284.25
2022-12-13T15:25:25.807Z,99286.78
2022-12-13T15:27:55.018Z,99288.47
2022-12-13T15:30:21.911Z,99285.88
2022-12-13T15:33:18.438Z,99276.47
2022-12-13T15:35:47.935Z,99277.25
2022-12-13T15:38:28.628Z,99280.50
2022-12-13T15:40:56.567Z,99275.22
2022-12-13T15:43:31.739Z,99280.19
2022-12-13T15:45:58.486Z,99283.56
2022-12-13T15:48:31.053Z,99282.63
2022-12-13T15:51:29.131Z,99286.72
2022-12-13T15:57:21.833Z,99267.94
2022-12-13T15:59:48.700Z,99266.22
2022-12-13T16:04:52.644Z,99261.88
2022-12-13T16:07:24.057Z,99259.31
2022-12-13T16:09:53.616Z,99266.13
2022-12-13T16:12:26.150Z,99266.06
2022-12-13T16:14:52.837Z,99262.56
2022-12-13T16:17:30.400Z,99252.41
2022-12-13T16:20:02.084Z,99261.66
2022-12-13T16:22:32.678Z,99259.94
2022-12-13T16:25:00.398Z,99259.94
2022-12-13T16:27:26.936Z,99251.44
2022-12-13T16:29:53.502Z,99247.22
2022-12-13T16:32:20.088Z,99250.66
2022-12-13T16:34:46.720Z,99254.13
2022-12-13T16:37:26.587Z,99254.97
2022-12-13T16:39:54.414Z,99253.25
2022-12-13T16:42:21.415Z,99252.41
2022-12-13T16:45:05.817Z,99259.22
2022-12-13T16:47:46.444Z,99260.94
2022-12-13T16:50:18.630Z,99252.47
2022-12-13T16:52:45.516Z,99254.22
2022-12-13T16:55:12.561Z,99245.78
2022-12-13T16:57:39.684Z,99250.88
2022-12-13T17:00:10.011Z,99253.50
2022-12-13T17:02:37.673Z,99256.06
2022-12-13T17:05:06.012Z,99255.22
2022-12-13T17:07:32.587Z,99252.63
2022-12-13T17:09:59.898Z,99260.25
2022-12-13T17:12:26.581Z,99249.22
2022-12-13T17:14:53.245Z,99246.59
2022-12-13T17:17:19.895Z,99244.84
2022-12-13T17:19:46.564Z,99250.88
2022-12-13T17:22:13.170Z,99245.78
2022-12-13T17:24:40.803Z,99251.72
2022-12-13T17:27:07.380Z,99255.84
2022-12-13T17:29:34.184Z,99262.56
2022-12-13T17:32:00.823Z,99262.56
2022-12-13T17:34:27.552Z,99261.81
2022-12-13T17:36:54.148Z,99260.09
2022-12-13T17:39:20.755Z,99264.28
2022-12-13T17:41:54.529Z,99258.28
2022-12-13T17:44:23.431Z,99258.28
2022-12-13T17:46:55.106Z,99260.81
2022-12-13T17:49:22.229Z,99276.06
2022-12-13T17:51:51.564Z,99269.28
2022-12-13T17:54:18.976Z,99268.41
2022-12-13T17:56:45.892Z,99270.88
2022-12-13T17:59:13.668Z,99266.72
2022-12-13T18:01:40.222Z,99257.50
2022-12-13T18:04:06.900Z,99259.97
2022-12-13T18:06:33.508Z,99254.94
2022-12-13T18:09:00.093Z,99254.97
2022-12-13T18:11:35.009Z,99254.13
2022-12-13T18:14:03.868Z,99250.75
2022-12-13T18:16:36.422Z,99239.72
2022-12-13T18:19:06.211Z,99245.69
2022-12-13T18:21:33.781Z,99244.97
2022-12-13T18:24:00.629Z,99243.28
2022-12-13T18:26:27.232Z,99238.31
2022-12-13T18:28:53.761Z,99236.59
2022-12-13T18:31:23.661Z,99232.44
2022-12-13T18:33:53.011Z,99231.69
2022-12-13T18:36:21.518Z,99225.81
2022-12-13T18:38:48.443Z,99234.38
2022-12-13T18:41:17.908Z,99227.63
2022-12-13T18:43:45.283Z,99224.25
2022-12-13T18:46:13.520Z,99227.63
2022-12-13T18:48:41.214Z,99227.63
2022-12-13T18:51:10.440Z,99236.19
2022-12-13T18:53:39.023Z,99232.81
2022-12-13T18:56:17.503Z,99226.81
2022-12-13T18:58:45.652Z,99226.81
2022-12-13T19:01:13.222Z,99222.53
2022-12-13T19:03:40.195Z,99216.59
2022-12-13T19:06:07.835Z,99212.38
2022-12-13T19:08:37.197Z,99209.84
2022-12-13T19:11:04.513Z,99210.66
2022-12-13T19:13:32.671Z,99211.50
2022-12-13T19:16:06.900Z,99216.53
2022-12-13T19:18:34.538Z,99214.03
2022-12-13T19:21:01.894Z,99219.13
2022-12-13T19:23:29.189Z,99219.13
2022-12-13T19:25:56.108Z,99218.25
2022-12-13T19:28:22.688Z,99212.28
2022-12-13T19:30:49.316Z,99205.47
2022-12-13T19:33:15.934Z,99201.22
2022-12-13T19:35:43.248Z,99205.44
2022-12-13T19:38:10.337Z,99203.75
2022-12-13T19:40:42.065Z,99213.94
2022-12-13T19:43:08.776Z,99217.31
2022-12-13T19:45:35.421Z,99207.13
2022-12-13T19:48:02.201Z,99202.84
2022-12-13T19:50:29.600Z,99205.38
2022-12-13T19:52:56.222Z,99205.38
2022-12-13T19:55:22.953Z,99202.00
2022-12-13T19:57:49.485Z,99210.47
2022-12-13T20:00:16.688Z,99207.91
2022-12-13T20:02:43.342Z,99201.13
2022-12-13T20:05:10.034Z,99207.03
2022-12-13T20:07:36.888Z,99207.03
2022-12-13T20:10:05.029Z,99205.28
2022-12-13T20:12:37.062Z,99195.94
2022-12-13T20:15:07.843Z,99200.13
2022-12-13T20:17:35.977Z,99200.91
2022-12-13T20:20:03.867Z,99200.03
2022-12-13T20:22:31.116Z,99201.66
2022-12-13T20:24:57.639Z,99205.00
2022-12-13T20:27:24.573Z,99191.41
2022-12-13T20:29:51.154Z,99186.28
2022-12-13T20:32:21.049Z,99190.44
2022-12-13T20:34:51.696Z,99180.22
2022-12-13T20:37:21.672Z,99182.66
2022-12-13T20:39:48.242Z,99184.41
2022-12-13T20:42:15.174Z,99184.31
2022-12-13T20:44:41.728Z,99178.31
2022-12-13T20:47:08.348Z,99174.03
2022-12-13T20:49:35.153Z,99180.75
2022-12-13T20:52:01.798Z,99174.75
2022-12-13T20:54:28.349Z,99171.31
2022-12-13T20:56:54.933Z,99161.97
2022-12-13T20:59:21.663Z,99163.59
2022-12-13T21:01:48.860Z,99166.16
2022-12-13T21:04:15.851Z,99165.22
2022-12-13T21:06:42.773Z,99162.63
2022-12-13T21:09:11.334Z,99171.94
2022-12-13T21:11:44.027Z,99164.28
2022-12-13T21:16:50.066Z,99162.47
2022-12-13T21:19:19.541Z,99159.03
2022-12-13T21:21:47.420Z,99159.88
2022-12-13T21:24:16.436Z,99145.41
2022-12-13T21:26:44.538Z,99152.09
2022-12-13T21:29:12.693Z,99144.41
2022-12-13T21:31:41.473Z,99147.78
2022-12-13T21:34:08.390Z,99159.56
2022-12-13T21:36:38.597Z,99159.56
2022-12-13T21:39:08.275Z,99156.13
2022-12-13T21:41:34.862Z,99157.75
2022-12-13T21:44:01.575Z,99156.91
2022-12-13T21:46:47.958Z,99160.28
2022-12-13T21:49:16.747Z,99160.16
2022-12-13T21:51:47.650Z,99161.00
2022-12-13T21:54:14.889Z,99150.72
2022-12-13T21:57:01.356Z,99149.00
2022-12-13T21:59:28.854Z,99147.28
2022-12-13T22:02:15.945Z,99152.38
2022-12-13T22:07:29.875Z,99152.28
2022-12-13T22:09:57.517Z,99153.88
2022-12-13T22:15:05.726Z,99152.09
2022-12-13T22:17:35.723Z,99152.06
2022-12-13T22:20:05.598Z,99147.81
2022-12-13T22:22:32.608Z,99151.16
2022-12-13T22:24:59.336Z,99150.28
2022-12-13T22:27:26.233Z,99154.53
2022-12-13T22:29:54.453Z,99153.59
2022-12-13T22:32:21.443Z,99151.88
2022-12-13T22:34:48.351Z,99158.56
2022-12-13T22:37:14.960Z,99153.38
2022-12-13T22:39:41.550Z,99144.88
2022-12-13T22:42:08.708Z,99152.44
2022-12-13T22:44:35.465Z,99153.19
2022-12-13T22:47:02.057Z,99154.00
2022-12-13T22:49:28.609Z,99153.91
2022-12-13T22:51:55.186Z,99150.44
2022-12-13T22:54:21.721Z,99149.53
2022-12-13T22:56:50.352Z,99151.16
2022-12-13T22:59:17.277Z,99155.31
2022-12-13T23:01:47.453Z,99156.13
2022-12-13T23:04:14.525Z,99152.69
2022-12-13T23:06:41.650Z,99157.66
2022-12-13T23:09:12.078Z,99155.88
2022-12-13T23:11:59.162Z,99155.00
2022-12-13T23:14:28.995Z,99150.63
2022-12-13T23:16:56.074Z,99155.69
2022-12-13T23:22:09.717Z,99151.28
2022-12-13T23:24:36.265Z,99153.75
2022-12-13T23:27:03.500Z,99160.47
2022-12-13T23:29:30.115Z,99150.22
2022-12-13T23:31:56.959Z,99152.63
2022-12-13T23:34:23.549Z,99148.38
2022-12-13T23:36:50.134Z,99140.66
2022-12-13T23:39:16.722Z,99144.81
2022-12-13T23:41:43.322Z,99151.50
2022-12-13T23:44:10.308Z,99149.78
2022-12-13T23:46:37.264Z,99144.59
2022-12-13T23:49:05.754Z,99147.94
2022-12-13T23:51:33.625Z,99154.63
2022-12-13T23:54:00.401Z,99141.84
2022-12-13T23:56:27.063Z,99144.31
2022-12-13T23:58:53.712Z,99151.06
